Time;durP1;ratioP1;P1;durP2;ratioP2;P2;SDS_P1;SDS_P2;PMS_P1;PMS_P2;Temp;Humidity;BMP_temperature;BMP_pressure;BME280_temperature;BME280_humidity;BME280_pressure;Samples;Min_cycle;Max_cycle;Signal;HPM_P1;HPM_P2
2022/05/08 00:02:10;;;;;;;;;25.50;25.50;;;;;14.63;67.95;101499.03;4975997;28;45190;-60
2022/05/08 00:04:35;;;;;;;;;27.25;23.75;;;;;14.65;68.02;101508.59;4978940;28;46078;-62
2022/05/08 00:07:00;;;;;;;;;28.25;25.25;;;;;14.63;68.00;101509.63;4977702;28;45252;-60
2022/05/08 00:09:26;;;;;;;;;28.25;28.00;;;;;14.59;68.49;101508.88;4975482;28;45442;-59
2022/05/08 00:11:52;;;;;;;;;26.75;24.75;;;;;14.54;68.98;101514.38;4958596;28;45472;-61
2022/05/08 00:14:18;;;;;;;;;28.25;28.25;;;;;14.49;69.62;101507.53;4975301;28;45434;-61
2022/05/08 00:16:43;;;;;;;;;33.00;28.25;;;;;14.44;69.34;101513.03;4977044;28;45816;-59
2022/05/08 00:19:08;;;;;;;;;24.75;24.75;;;;;14.35;70.04;101506.34;4976440;28;45316;-61
2022/05/08 00:21:34;;;;;;;;;24.50;22.00;;;;;14.34;70.17;101514.34;4975715;28;45864;-60
2022/05/08 00:23:59;;;;;;;;;28.00;26.25;;;;;14.27;70.49;101503.97;4975281;28;46214;-60
2022/05/08 00:26:24;;;;;;;;;29.75;27.25;;;;;14.22;70.34;101499.81;4975302;28;45440;-58
2022/05/08 00:28:50;;;;;;;;;31.50;28.25;;;;;14.20;70.96;101504.31;4957734;28;45411;-58
2022/05/08 00:31:16;;;;;;;;;28.25;26.75;;;;;14.16;70.87;101500.91;4975825;28;45491;-60
2022/05/08 00:33:41;;;;;;;;;48.50;42.00;;;;;14.15;70.65;101502.72;4974936;28;46198;-60
2022/05/08 00:36:07;;;;;;;;;36.00;30.25;;;;;14.11;70.31;101501.13;4957381;28;45449;-61
2022/05/08 00:38:33;;;;;;;;;35.75;29.75;;;;;14.09;71.36;101500.31;4975754;28;45341;-62
2022/05/08 00:40:58;;;;;;;;;27.50;24.50;;;;;14.09;70.71;101502.97;4976257;28;45369;-61
2022/05/08 00:43:40;;;;;;;;;33.75;25.75;;;;;14.05;71.58;101503.13;4975025;28;45507;-62
2022/05/08 00:46:13;;;;;;;;;29.75;26.75;;;;;14.01;71.33;101505.91;4957485;28;45405;-62
2022/05/08 00:48:40;;;;;;;;;29.00;27.00;;;;;13.98;71.38;101500.75;4977492;28;45473;-60
2022/05/08 00:51:08;;;;;;;;;32.50;28.50;;;;;13.93;71.27;101502.72;4975648;28;45459;-61
2022/05/08 00:53:46;;;;;;;;;31.75;29.75;;;;;13.92;71.66;101511.56;4957947;28;47060;-60
2022/05/08 00:56:13;;;;;;;;;29.00;25.75;;;;;13.86;71.48;101498.59;4955343;28;45282;-63
2022/05/08 00:58:40;;;;;;;;;27.00;26.50;;;;;13.83;71.98;101499.59;4941722;28;45343;-65
2022/05/08 01:01:07;;;;;;;;;32.00;27.25;;;;;13.78;72.64;101501.50;4958988;28;45227;-60
2022/05/08 01:03:33;;;;;;;;;24.50;23.00;;;;;13.76;72.67;101502.50;4937562;28;46985;-59
2022/05/08 01:06:04;;;;;;;;;28.00;26.00;;;;;13.73;72.19;101503.47;4957299;28;45300;-61
2022/05/08 01:08:30;;;;;;;;;34.25;27.75;;;;;13.71;72.28;101507.97;4952263;28;45416;-59
2022/05/08 01:10:55;;;;;;;;;26.00;24.50;;;;;13.65;72.37;101497.63;4964972;28;45288;-61
2022/05/08 01:13:21;;;;;;;;;30.50;25.50;;;;;13.59;72.41;101496.94;4974893;28;46559;-58
2022/05/08 01:15:48;;;;;;;;;27.50;25.75;;;;;13.65;72.37;101497.63;4961166;28;45484;-62
2022/05/08 01:18:15;;;;;;;;;28.75;24.25;;;;;13.62;72.61;101500.38;4956193;28;45325;-60
2022/05/08 01:20:43;;;;;;;;;24.25;23.25;;;;;13.58;72.97;101499.66;4955400;28;45318;-58
2022/05/08 01:23:10;;;;;;;;;26.75;23.50;;;;;13.55;72.96;101497.97;4955471;28;46950;-61
2022/05/08 01:25:53;;;;;;;;;22.25;19.75;;;;;13.51;72.66;101501.66;4967433;28;45438;-58
2022/05/08 01:28:21;;;;;;;;;25.50;23.00;;;;;13.48;73.16;101503.56;4965127;28;45389;-60
2022/05/08 01:30:48;;;;;;;;;24.00;23.50;;;;;13.44;73.34;101493.13;4973692;28;45465;-60
2022/05/08 01:33:14;;;;;;;;;31.75;30.00;;;;;13.40;73.78;101490.59;4957857;28;48245;-60
2022/05/08 01:35:41;;;;;;;;;23.75;21.50;;;;;13.37;73.29;101488.06;4973427;28;45435;-59
2022/05/08 01:38:07;;;;;;;;;22.75;21.00;;;;;13.36;73.29;101489.88;4973312;28;45537;-61
2022/05/08 01:40:33;;;;;;;;;26.25;26.25;;;;;13.35;73.63;101492.56;4973997;28;45453;-59
2022/05/08 01:42:59;;;;;;;;;24.00;23.25;;;;;13.30;73.72;101488.31;4975670;28;46890;-60
2022/05/08 01:45:24;;;;;;;;;28.50;23.75;;;;;13.29;73.72;101491.88;4975207;28;45317;-61
2022/05/08 01:50:35;;;;;;;;;28.25;24.50;;;;;13.20;74.27;101489.56;4975220;28;45401;-61
2022/05/08 01:53:00;;;;;;;;;29.00;24.75;;;;;13.22;74.12;101494.78;4978809;28;46918;-59
2022/05/08 01:55:26;;;;;;;;;25.25;24.50;;;;;13.21;73.60;101488.66;4978568;28;45338;-58
2022/05/08 01:57:53;;;;;;;;;27.75;25.50;;;;;13.17;74.14;101484.38;4978647;28;45444;-59
2022/05/08 02:00:19;;;;;;;;;24.75;21.50;;;;;13.18;74.30;101498.44;4978716;28;45378;-59
2022/05/08 02:02:48;;;;;;;;;27.50;25.75;;;;;13.15;74.35;101491.50;4978521;28;45276;-59
2022/05/08 02:05:17;;;;;;;;;31.25;28.50;;;;;13.12;74.91;101489.84;4979722;28;45388;-59
2022/05/08 02:07:44;;;;;;;;;26.50;25.75;;;;;13.12;73.94;101488.97;4977440;28;45268;-59
2022/05/08 02:10:09;;;;;;;;;29.25;26.75;;;;;13.07;74.55;101488.28;4982436;28;45264;-64
2022/05/08 02:12:35;;;;;;;;;30.00;26.75;;;;;13.05;74.80;101479.56;4978788;28;46338;-60
2022/05/08 02:15:00;;;;;;;;;29.75;28.50;;;;;13.05;74.54;101492.75;4981729;28;45406;-58
2022/05/08 02:17:26;;;;;;;;;23.75;23.75;;;;;13.03;75.03;101491.97;4982626;28;45334;-60
2022/05/08 02:19:51;;;;;;;;;28.50;26.50;;;;;13.01;74.84;101492.00;4982239;28;44944;-59
2022/05/08 02:22:17;;;;;;;;;27.75;26.00;;;;;12.97;75.23;101487.75;4980917;28;45350;-61
2022/05/08 02:24:42;;;;;;;;;30.50;28.50;;;;;12.92;75.94;101489.69;4961327;28;45843;-60
2022/05/08 02:27:07;;;;;;;;;35.00;30.25;;;;;12.84;76.25;101487.34;4979523;28;45358;-60
2022/05/08 02:29:33;;;;;;;;;37.00;31.50;;;;;12.80;76.08;101488.38;4978440;28;45246;-59
2022/05/08 02:31:58;;;;;;;;;35.25;29.25;;;;;12.79;76.25;101499.84;4979688;28;45539;-59
2022/05/08 02:34:23;;;;;;;;;31.50;28.50;;;;;12.73;77.00;101495.63;4977511;28;45431;-59
2022/05/08 02:36:49;;;;;;;;;34.75;32.00;;;;;12.72;76.25;101496.53;4977499;28;45344;-59
2022/05/08 02:39:14;;;;;;;;;37.50;33.50;;;;;12.73;76.90;101502.69;4977865;28;45503;-59
2022/05/08 02:41:39;;;;;;;;;36.75;33.00;;;;;12.64;77.04;101495.94;4976900;28;46013;-61
2022/05/08 02:44:05;;;;;;;;;36.75;31.25;;;;;12.67;76.53;101495.84;4961627;28;45312;-60
2022/05/08 02:46:30;;;;;;;;;28.00;28.00;;;;;12.63;77.28;101505.63;4980190;28;45368;-59
2022/05/08 02:48:56;;;;;;;;;35.25;31.25;;;;;12.62;76.49;101503.91;4980877;28;45307;-62
2022/05/08 02:51:21;;;;;;;;;29.00;22.50;;;;;12.59;77.28;101503.16;4980615;28;45302;-63
2022/05/08 02:53:46;;;;;;;;;32.75;31.00;;;;;12.51;77.72;101501.63;4978639;28;45320;-60
2022/05/08 02:58:56;;;;;;;;;35.00;28.50;;;;;12.45;78.38;101504.47;4977189;28;45376;-59
2022/05/08 03:01:21;;;;;;;;;28.50;26.50;;;;;12.41;77.74;101502.84;4976519;28;45391;-60
2022/05/08 03:03:47;;;;;;;;;32.50;30.50;;;;;12.36;78.34;101508.28;4976699;28;45295;-62
2022/05/08 03:06:13;;;;;;;;;36.75;32.75;;;;;12.32;78.39;101509.28;4976015;28;45879;-62
2022/05/08 03:08:39;;;;;;;;;29.25;28.00;;;;;12.35;78.03;101511.81;4978651;28;45131;-61
2022/05/08 03:13:49;;;;;;;;;38.75;35.00;;;;;12.45;77.98;101515.03;4976295;28;45509;-60
2022/05/08 03:16:14;;;;;;;;;36.50;33.00;;;;;12.40;77.77;101501.97;4976449;28;45242;-61
2022/05/08 03:18:40;;;;;;;;;46.75;35.25;;;;;12.41;78.75;101510.78;4959030;28;45315;-61
2022/05/08 03:21:06;;;;;;;;;47.50;39.00;;;;;12.49;79.04;101507.88;4978187;28;47030;-61
2022/05/08 03:23:33;;;;;;;;;39.75;35.00;;;;;12.50;78.49;101513.09;4979033;28;45266;-60
2022/05/08 03:25:59;;;;;;;;;48.25;39.00;;;;;12.50;78.97;101510.47;4976354;28;45519;-61
2022/05/08 03:28:24;;;;;;;;;51.00;40.50;;;;;12.51;78.53;101512.19;4976126;28;45303;-61
2022/05/08 03:30:50;;;;;;;;;49.75;40.75;;;;;12.52;78.78;101510.41;4977962;28;45515;-58
2022/05/08 03:33:15;;;;;;;;;51.25;39.50;;;;;12.43;79.31;101498.38;4978340;28;45350;-60
2022/05/08 03:35:41;;;;;;;;;51.00;40.75;;;;;12.54;78.70;101511.22;4976539;28;45377;-61
2022/05/08 03:38:08;;;;;;;;;50.00;42.50;;;;;12.54;79.45;101504.16;4976627;28;45411;-60
2022/05/08 03:40:34;;;;;;;;;50.50;41.50;;;;;12.54;79.25;101505.94;4976196;28;45428;-61
2022/05/08 03:43:00;;;;;;;;;50.75;42.75;;;;;12.51;79.48;101501.63;4976361;28;45284;-62
2022/05/08 03:45:27;;;;;;;;;51.75;43.00;;;;;12.52;80.10;101510.41;4976814;28;46051;-66
2022/05/08 03:47:54;;;;;;;;;54.75;42.00;;;;;12.41;79.74;101493.16;4978156;28;45607;-60
2022/05/08 03:50:21;;;;;;;;;53.75;42.25;;;;;12.44;79.43;101496.59;4976383;28;46444;-59
2022/05/08 03:52:47;;;;;;;;;54.00;43.75;;;;;12.50;79.61;101510.47;4977365;28;45441;-61
2022/05/08 03:55:13;;;;;;;;;51.50;41.00;;;;;12.52;79.41;101502.47;4977313;28;45287;-59
2022/05/08 03:57:39;;;;;;;;;57.00;45.00;;;;;12.56;79.78;101515.53;4976287;28;45540;-59
2022/05/08 04:00:05;;;;;;;;;55.50;43.00;;;;;12.56;79.50;101506.75;4975698;28;46312;-62
2022/05/08 04:02:30;;;;;;;;;52.50;42.00;;;;;12.56;78.61;101512.03;4974547;28;45317;-62
2022/05/08 04:04:56;;;;;;;;;55.00;44.00;;;;;12.58;78.75;101512.84;4975666;28;45423;-63
2022/05/08 04:07:21;;;;;;;;;50.00;40.75;;;;;12.57;79.27;101514.63;4975861;28;45687;-61
2022/05/08 04:09:46;;;;;;;;;57.00;44.00;;;;;12.58;79.21;101520.75;4975469;28;46206;-60
2022/05/08 04:12:12;;;;;;;;;58.25;44.75;;;;;12.56;78.50;101509.38;4975937;28;45338;-60
2022/05/08 04:14:38;;;;;;;;;53.75;44.00;;;;;12.63;78.68;101523.25;4977754;28;45431;-61
2022/05/08 04:17:03;;;;;;;;;56.00;44.50;;;;;12.59;78.83;101517.19;4978226;28;45277;-58
2022/05/08 04:19:29;;;;;;;;;56.50;44.50;;;;;12.61;79.66;101518.00;4962525;28;47557;-61
2022/05/08 04:24:16;;;;;;;;;55.25;44.75;;;;;12.56;78.97;101519.94;4980022;28;45295;-59
2022/05/08 04:24:43;;;;;;;;;53.50;43.25;;;;;12.61;78.87;101523.28;4975560;28;45450;-62
2022/05/08 04:27:09;;;;;;;;;54.00;44.75;;;;;12.66;78.65;101523.16;4976734;28;45471;-61
2022/05/08 04:29:34;;;;;;;;;56.50;44.25;;;;;12.68;78.56;101522.16;4958906;28;47110;-63
2022/05/08 04:31:59;;;;;;;;;54.75;45.50;;;;;12.70;79.19;101530.88;4975674;28;45718;-63
2022/05/08 04:34:25;;;;;;;;;59.50;46.00;;;;;12.70;78.44;101530.88;4975222;28;45306;-60
2022/05/08 04:36:50;;;;;;;;;58.50;45.50;;;;;12.77;78.53;101533.34;4976142;28;45539;-61
2022/05/08 04:39:17;;;;;;;;;58.00;47.00;;;;;12.78;78.64;101533.28;4975673;28;45404;-60
2022/05/08 04:41:43;;;;;;;;;55.25;44.00;;;;;12.74;78.32;101522.91;4975138;28;45388;-60
2022/05/08 04:44:08;;;;;;;;;59.75;46.25;;;;;12.82;78.54;101529.63;4975121;28;45451;-61
2022/05/08 04:46:34;;;;;;;;;56.25;45.25;;;;;12.74;78.55;101513.19;4976447;28;45356;-60
2022/05/08 04:48:59;;;;;;;;;62.75;47.75;;;;;12.73;79.00;101526.44;4959248;28;47754;-61
2022/05/08 04:51:25;;;;;;;;;55.50;43.50;;;;;12.79;78.72;101534.16;4975665;28;45374;-59
2022/05/08 04:53:50;;;;;;;;;54.00;41.00;;;;;12.79;78.82;101542.06;4975515;28;45398;-60
2022/05/08 04:56:15;;;;;;;;;60.75;47.25;;;;;12.78;78.54;101541.19;4976350;28;45376;-61
2022/05/08 04:58:41;;;;;;;;;58.00;43.75;;;;;12.77;78.27;101544.75;4977050;28;46175;-58
2022/05/08 05:01:06;;;;;;;;;62.00;49.00;;;;;12.72;79.46;101538.78;4975212;28;45474;-59
2022/05/08 05:03:31;;;;;;;;;60.50;47.25;;;;;12.78;78.44;101543.00;4975948;28;45369;-59
2022/05/08 05:05:57;;;;;;;;;60.50;44.75;;;;;12.84;78.55;101551.56;4975467;28;45347;-60
2022/05/08 05:08:23;;;;;;;;;61.75;46.75;;;;;12.82;77.94;101541.97;4978057;28;46205;-60
2022/05/08 05:10:48;;;;;;;;;58.75;46.75;;;;;12.94;78.44;101565.31;4975400;28;45482;-59
2022/05/08 05:13:14;;;;;;;;;62.25;48.00;;;;;12.98;77.74;101566.06;4975346;28;45778;-62
2022/05/08 05:15:39;;;;;;;;;56.50;44.75;;;;;13.05;77.59;101564.06;4959688;28;45632;-60
2022/05/08 05:18:05;;;;;;;;;57.25;45.50;;;;;13.08;77.55;101569.25;4975506;28;45402;-60
2022/05/08 05:20:31;;;;;;;;;54.50;43.25;;;;;13.08;77.52;101564.81;4976710;28;45326;-61
2022/05/08 05:23:00;;;;;;;;;57.50;46.50;;;;;13.13;76.94;101568.16;4976159;28;48717;-59
2022/05/08 05:25:26;;;;;;;;;60.25;47.75;;;;;13.20;77.38;101574.09;4977130;28;45441;-61
2022/05/08 05:27:52;;;;;;;;;60.75;47.25;;;;;13.24;76.84;101581.00;4977334;28;46180;-61
2022/05/08 05:30:17;;;;;;;;;57.25;46.50;;;;;13.24;77.14;101578.38;4977449;28;45500;-62
2022/05/08 05:32:43;;;;;;;;;54.50;44.50;;;;;13.25;76.63;101574.81;4960071;28;45269;-62
2022/05/08 05:35:08;;;;;;;;;56.50;45.75;;;;;13.30;76.80;101583.44;4977894;28;45627;-60
2022/05/08 05:37:34;;;;;;;;;57.00;45.50;;;;;13.27;76.92;101580.91;4977489;28;46050;-61
2022/05/08 05:40:00;;;;;;;;;59.50;46.00;;;;;13.19;76.69;101582.06;4978204;28;45282;-59
2022/05/08 05:42:25;;;;;;;;;54.25;42.50;;;;;13.32;76.57;101593.97;4979390;28;45866;-61
2022/05/08 05:44:51;;;;;;;;;57.50;45.50;;;;;13.32;76.49;101590.44;4978574;28;45317;-63
2022/05/08 05:50:00;;;;;;;;;53.75;44.50;;;;;13.38;75.99;101592.84;4978210;28;45342;-59
2022/05/08 05:52:26;;;;;;;;;61.25;47.00;;;;;13.40;76.22;101594.53;4979062;28;45239;-60
2022/05/08 05:54:51;;;;;;;;;56.25;45.75;;;;;13.41;76.09;101592.75;4980311;28;45401;-61
2022/05/08 05:57:16;;;;;;;;;57.00;45.50;;;;;13.40;76.22;101591.03;4978754;28;45389;-61
2022/05/08 05:59:42;;;;;;;;;57.50;44.50;;;;;13.48;76.03;101596.09;4980568;28;45255;-62
2022/05/08 06:02:10;;;;;;;;;54.75;45.25;;;;;13.48;76.16;101599.56;4982276;28;45185;-59
2022/05/08 06:04:35;;;;;;;;;56.00;44.75;;;;;13.49;75.90;101598.66;4981252;28;45463;-61
2022/05/08 06:07:00;;;;;;;;;54.25;44.00;;;;;13.57;75.87;101599.22;4960442;28;48240;-61
2022/05/08 06:09:26;;;;;;;;;51.50;41.50;;;;;13.63;75.81;101610.50;4977842;28;45249;-59
2022/05/08 06:11:53;;;;;;;;;52.00;42.50;;;;;13.62;75.80;101616.72;4977884;28;45284;-60
2022/05/08 06:14:18;;;;;;;;;54.00;43.25;;;;;13.68;75.13;101612.06;4978997;28;45254;-61
2022/05/08 06:16:44;;;;;;;;;52.25;42.00;;;;;13.76;75.14;101598.53;4978834;28;46567;-59
2022/05/08 06:19:09;;;;;;;;;57.00;41.75;;;;;13.75;75.00;101601.25;4960349;28;45575;-62
2022/05/08 06:21:35;;;;;;;;;54.00;43.00;;;;;13.78;74.89;101606.44;4980640;28;45253;-60
2022/05/08 06:24:00;;;;;;;;;54.25;43.50;;;;;13.82;74.62;101608.94;4979221;28;45276;-61
2022/05/08 06:26:26;;;;;;;;;54.75;42.50;;;;;13.94;74.52;101614.69;4977353;28;45962;-60
2022/05/08 06:28:52;;;;;;;;;52.50;42.75;;;;;14.01;74.05;101611.72;4977551;28;45972;-61
2022/05/08 06:31:17;;;;;;;;;55.75;44.25;;;;;14.10;73.73;101620.22;4977118;28;45389;-60
2022/05/08 06:33:43;;;;;;;;;57.75;42.00;;;;;14.14;73.11;101620.06;4977056;28;45364;-59
2022/05/08 06:36:10;;;;;;;;;55.50;45.75;;;;;14.11;73.34;101617.53;4976528;28;45385;-61
2022/05/08 06:38:35;;;;;;;;;51.00;42.25;;;;;14.15;73.21;101611.19;4976735;28;45388;-59
2022/05/08 06:41:01;;;;;;;;;40.25;36.25;;;;;14.27;72.96;101619.59;4976862;28;45428;-57
2022/05/08 06:43:26;;;;;;;;;56.50;45.00;;;;;14.23;72.63;101612.69;4977442;28;45373;-62
2022/05/08 06:45:52;;;;;;;;;57.50;46.00;;;;;14.28;72.69;101622.16;4977927;28;45941;-60
2022/05/08 06:48:17;;;;;;;;;53.00;42.25;;;;;14.35;72.64;101622.78;4979340;28;45341;-61
2022/05/08 06:50:43;;;;;;;;;52.75;42.25;;;;;14.40;72.37;101620.81;4979045;28;45361;-63
2022/05/08 06:53:09;;;;;;;;;56.00;43.75;;;;;14.13;72.51;101586.59;4959356;28;45206;-62
2022/05/08 06:55:35;;;;;;;;;58.25;46.75;;;;;14.39;72.53;101629.69;4977077;28;45449;-58
2022/05/08 06:58:00;;;;;;;;;56.00;45.50;;;;;14.43;72.27;101633.94;4976842;28;45399;-59
2022/05/08 07:03:09;;;;;;;;;50.75;42.25;;;;;14.44;72.13;101633.00;4977655;28;45210;-58
2022/05/08 07:05:40;;;;;;;;;57.00;45.50;;;;;14.49;72.01;101642.53;4976622;28;46086;-61
2022/05/08 07:08:06;;;;;;;;;55.25;43.00;;;;;14.54;72.03;101640.59;4977702;28;45375;-61
2022/05/08 07:10:32;;;;;;;;;45.00;36.75;;;;;14.37;71.72;101605.06;4977185;28;45385;-61
2022/05/08 07:12:57;;;;;;;;;49.00;39.25;;;;;14.51;71.69;101638.94;4975920;28;45443;-59
2022/05/08 07:15:23;;;;;;;;;53.00;42.25;;;;;14.50;71.94;101647.81;4976719;28;49862;-61
2022/05/08 07:17:48;;;;;;;;;53.00;42.50;;;;;14.58;71.78;101651.00;4977197;28;45331;-61
2022/05/08 07:20:13;;;;;;;;;51.75;39.75;;;;;14.61;71.26;101648.22;4979116;28;45376;-60
2022/05/08 07:22:39;;;;;;;;;50.00;40.75;;;;;14.60;71.79;101648.28;4979821;28;45305;-60
2022/05/08 07:25:06;;;;;;;;;57.25;41.50;;;;;14.64;71.32;101655.16;4978988;28;45980;-61
2022/05/08 07:27:36;;;;;;;;;56.25;43.25;;;;;14.66;70.98;101661.25;4978057;28;45244;-62
2022/05/08 07:30:03;;;;;;;;;54.50;43.75;;;;;14.66;70.89;101649.81;4978830;28;45385;-63
2022/05/08 07:32:28;;;;;;;;;42.00;36.50;;;;;14.59;70.96;101651.84;4977024;28;45265;-59
2022/05/08 07:37:37;;;;;;;;;55.25;42.50;;;;;14.67;70.93;101654.19;4977339;28;45321;-60
2022/05/08 07:40:03;;;;;;;;;48.25;37.25;;;;;14.75;71.01;101658.28;4978991;28;45256;-58
2022/05/08 07:42:28;;;;;;;;;49.75;40.50;;;;;14.83;70.94;101657.97;4976927;28;45286;-58
2022/05/08 07:44:54;;;;;;;;;57.00;44.00;;;;;14.90;70.41;101663.91;4976859;28;46278;-58
2022/05/08 07:47:21;;;;;;;;;54.75;43.75;;;;;14.94;70.05;101669.91;4977563;28;45341;-60
2022/05/08 07:49:46;;;;;;;;;50.50;40.00;;;;;15.00;70.23;101667.91;4976325;28;45271;-59
2022/05/08 07:52:12;;;;;;;;;50.25;42.25;;;;;15.09;69.93;101671.09;4977510;28;45180;-60
2022/05/08 07:54:37;;;;;;;;;49.50;41.00;;;;;15.14;69.55;101669.09;4976035;28;45353;-59
2022/05/08 07:57:03;;;;;;;;;55.50;43.00;;;;;15.27;69.56;101680.03;4978248;28;45217;-58
2022/05/08 07:59:28;;;;;;;;;52.75;39.75;;;;;15.31;69.25;101671.91;4976243;28;45378;-59
2022/05/08 08:01:54;;;;;;;;;49.00;40.00;;;;;15.34;68.98;101674.41;4976140;28;45627;-59
2022/05/08 08:04:19;;;;;;;;;54.25;42.75;;;;;15.52;68.79;101669.25;4975605;28;46021;-59
2022/05/08 08:06:45;;;;;;;;;48.25;39.00;;;;;15.72;68.30;101675.44;4977036;28;45328;-57
2022/05/08 08:09:11;;;;;;;;;49.50;39.50;;;;;15.85;67.64;101670.47;4978795;28;45325;-63
2022/05/08 08:11:38;;;;;;;;;51.50;39.75;;;;;15.83;66.89;101673.19;4978136;28;45361;-57
2022/05/08 08:14:04;;;;;;;;;49.00;39.00;;;;;15.84;67.16;101682.00;4978506;28;45564;-62
2022/05/08 08:16:29;;;;;;;;;54.25;40.25;;;;;15.91;67.09;101680.84;4975672;28;45202;-63
2022/05/08 08:18:56;;;;;;;;;43.00;36.25;;;;;16.01;66.36;101675.97;4976681;28;45330;-60
2022/05/08 08:21:22;;;;;;;;;53.50;42.75;;;;;16.03;66.01;101674.13;4958292;28;45331;-61
2022/05/08 08:23:48;;;;;;;;;51.00;42.75;;;;;16.09;66.00;101670.31;4976247;28;47177;-59
2022/05/08 08:26:13;;;;;;;;;54.75;41.50;;;;;16.21;65.67;101673.28;4976561;28;45431;-62
2022/05/08 08:28:39;;;;;;;;;47.25;40.50;;;;;16.41;65.31;101681.22;4975934;28;45500;-62
2022/05/08 08:31:06;;;;;;;;;52.00;39.50;;;;;16.56;65.16;101679.63;4976397;28;45421;-60
2022/05/08 08:33:32;;;;;;;;;54.25;41.50;;;;;16.68;64.42;101676.38;4976671;28;47224;-65
2022/05/08 08:35:57;;;;;;;;;45.25;37.25;;;;;16.83;64.12;101673.91;4976956;28;45377;-62
2022/05/08 08:38:22;;;;;;;;;52.00;40.75;;;;;16.91;63.17;101679.69;4978531;28;45306;-63
2022/05/08 08:40:49;;;;;;;;;50.25;42.00;;;;;16.97;63.25;101673.22;4977494;28;45170;-61
2022/05/08 08:43:19;;;;;;;;;52.00;39.75;;;;;16.99;62.86;101666.94;4977132;28;46869;-61
2022/05/08 08:48:34;;;;;;;;;51.00;41.00;;;;;17.01;62.53;101677.50;4978522;28;45349;-61
2022/05/08 08:51:01;;;;;;;;;49.25;37.50;;;;;17.00;62.06;101674.00;4976960;28;45798;-61
2022/05/08 08:53:28;;;;;;;;;167.75;149.50;;;;;17.04;62.54;101672.91;4975885;28;45462;-65
2022/05/08 08:55:57;;;;;;;;;54.25;41.50;;;;;17.13;61.79;101678.69;4976146;28;45518;-64
2022/05/08 08:58:22;;;;;;;;;49.25;41.25;;;;;17.10;60.95;101676.19;4977387;28;45422;-64
2022/05/08 09:00:49;;;;;;;;;49.50;42.50;;;;;17.14;61.57;101677.75;4979885;28;45325;-63
2022/05/08 09:03:25;;;;;;;;;43.00;35.50;;;;;17.13;61.18;101678.69;4979578;28;45937;-64
2022/05/08 09:05:55;;;;;;;;;47.50;39.00;;;;;17.30;61.51;101685.78;4971562;28;45603;-61
2022/05/08 09:08:26;;;;;;;;;47.00;38.50;;;;;17.41;60.80;101677.28;4961082;28;45473;-60
2022/05/08 09:10:53;;;;;;;;;50.25;39.50;;;;;17.44;61.07;101677.13;4963563;28;45400;-62
2022/05/08 09:13:19;;;;;;;;;46.75;38.25;;;;;17.59;60.59;101681.63;4959576;28;46325;-61
2022/05/08 09:15:45;;;;;;;;;51.00;39.75;;;;;17.71;60.10;101673.94;4961076;28;45428;-58
2022/05/08 09:18:12;;;;;;;;;51.50;42.75;;;;;17.88;59.99;101671.22;4960569;28;45751;-60
2022/05/08 09:20:47;;;;;;;;;48.25;38.75;;;;;17.99;60.18;101677.78;4958332;28;45349;-59
2022/05/08 09:23:16;;;;;;;;;50.00;40.00;;;;;18.09;59.41;101681.72;4958642;28;46209;-60
2022/05/08 09:25:55;;;;;;;;;48.00;39.50;;;;;18.19;59.23;101680.28;4942728;28;45413;-61
2022/05/08 09:28:29;;;;;;;;;50.25;40.50;;;;;18.26;59.14;101686.09;4950883;28;45488;-59
2022/05/08 09:30:55;;;;;;;;;50.50;41.50;;;;;18.28;58.41;101681.56;4959620;28;45330;-59
2022/05/08 09:33:24;;;;;;;;;52.00;42.75;;;;;18.35;58.48;101674.94;4959266;28;45289;-60
2022/05/08 09:35:50;;;;;;;;;50.50;40.50;;;;;18.51;57.51;101688.28;4958414;28;45431;-60
2022/05/08 09:38:15;;;;;;;;;47.25;39.25;;;;;18.62;58.07;101684.13;4957979;28;45373;-63
2022/05/08 09:40:40;;;;;;;;;45.50;39.00;;;;;18.72;57.12;101684.47;4940564;28;45231;-62
2022/05/08 09:43:25;;;;;;;;;49.50;40.00;;;;;18.77;56.79;101696.59;4958788;28;45950;-62
2022/05/08 09:46:00;;;;;;;;;49.50;38.75;;;;;18.86;57.30;101687.22;4958275;28;45332;-61
2022/05/08 09:48:30;;;;;;;;;48.50;40.00;;;;;19.11;57.23;101684.00;4958379;28;45432;-61
2022/05/08 09:51:05;;;;;;;;;50.50;39.50;;;;;19.30;56.88;101690.91;4958535;28;45522;-60
2022/05/08 09:53:31;;;;;;;;;53.00;41.25;;;;;19.36;55.90;101679.88;4960656;28;46354;-62
2022/05/08 09:55:59;;;;;;;;;49.00;39.25;;;;;19.42;56.07;101682.19;4958713;28;45414;-62
2022/05/08 09:58:25;;;;;;;;;50.50;41.25;;;;;19.44;55.30;101682.06;4958173;28;45200;-59
2022/05/08 10:00:51;;;;;;;;;46.75;39.50;;;;;19.50;55.32;101675.53;4959257;28;45387;-58
2022/05/08 10:03:18;;;;;;;;;50.50;40.50;;;;;19.61;55.21;101673.06;4957838;28;45661;-59
2022/05/08 10:05:45;;;;;;;;;51.00;41.00;;;;;19.75;55.14;101676.69;4957957;28;45320;-61
2022/05/08 10:08:14;;;;;;;;;53.25;41.50;;;;;19.98;54.80;101665.44;4958240;28;45408;-61
2022/05/08 10:16:57;;;;;;;;;49.25;38.50;;;;;20.35;53.62;101664.94;4958104;28;45388;-62
2022/05/08 10:19:25;;;;;;;;;55.00;44.00;;;;;20.43;53.23;101667.13;4958393;28;45373;-63
2022/05/08 10:21:57;;;;;;;;;52.50;43.00;;;;;20.53;52.25;101667.34;4937080;28;45569;-63
2022/05/08 10:24:34;;;;;;;;;49.50;41.25;;;;;20.64;52.57;101661.31;4942394;28;45378;-62
2022/05/08 10:27:16;;;;;;;;;48.00;40.00;;;;;20.79;51.97;101654.97;4958342;28;45281;-60
2022/05/08 10:29:48;;;;;;;;;52.75;42.50;;;;;21.10;52.28;101662.78;4957476;28;45443;-62
2022/05/08 10:32:33;;;;;;;;;50.75;41.00;;;;;21.28;50.68;101663.34;4950745;28;45551;-59
2022/05/08 10:35:09;;;;;;;;;56.75;44.00;;;;;21.21;50.55;101660.22;4956395;28;45540;-59
2022/05/08 10:37:35;;;;;;;;;52.25;41.25;;;;;21.10;51.53;101654.75;4957826;28;45441;-61
2022/05/08 10:40:03;;;;;;;;;51.75;40.00;;;;;21.30;50.69;101653.41;4957753;28;45469;-62
2022/05/08 10:42:29;;;;;;;;;50.00;40.50;;;;;21.41;50.81;101645.47;4955688;28;46629;-64
2022/05/08 10:44:59;;;;;;;;;50.25;39.75;;;;;21.51;49.78;101655.53;4957076;28;46041;-62
2022/05/08 10:47:43;;;;;;;;;53.00;42.50;;;;;21.60;50.02;101654.91;4957559;28;45547;-63
2022/05/08 10:50:12;;;;;;;;;50.75;40.75;;;;;21.56;49.28;101650.72;4954292;28;45604;-65
2022/05/08 10:52:45;;;;;;;;;47.25;39.00;;;;;21.55;50.25;101654.34;4955391;28;45731;-61
2022/05/08 10:55:14;;;;;;;;;51.00;42.50;;;;;21.48;49.14;101647.72;4957110;28;45918;-61
2022/05/08 10:57:41;;;;;;;;;48.50;40.00;;;;;21.51;48.73;101653.69;4944463;28;46411;-61
2022/05/08 11:00:07;;;;;;;;;51.25;41.25;;;;;21.49;49.37;101647.59;4941946;28;45322;-61
2022/05/08 11:02:59;;;;;;;;;49.50;41.75;;;;;21.58;49.04;101646.13;4955292;28;45598;-62
2022/05/08 11:05:33;;;;;;;;;52.00;42.75;;;;;21.47;48.90;101648.69;4955310;28;45427;-62
2022/05/08 11:08:10;;;;;;;;;52.50;42.75;;;;;21.42;48.78;101649.88;4955770;28;45430;-60
2022/05/08 11:10:38;;;;;;;;;53.00;41.75;;;;;21.43;49.16;101648.91;4956016;28;45434;-61
2022/05/08 11:13:12;;;;;;;;;48.50;41.00;;;;;21.54;48.79;101655.31;4956382;28;45338;-62
2022/05/08 11:15:46;;;;;;;;;48.75;40.75;;;;;21.56;48.81;101656.06;4955614;28;46331;-59
2022/05/08 11:18:17;;;;;;;;;50.25;41.50;;;;;21.45;48.43;101651.47;4956669;28;45391;-61
2022/05/08 11:20:54;;;;;;;;;56.50;44.50;;;;;21.36;49.45;101652.09;4954365;28;45520;-61
2022/05/08 11:23:22;;;;;;;;;47.00;40.00;;;;;21.54;49.29;101655.31;4956875;28;45453;-61
2022/05/08 11:25:50;;;;;;;;;51.75;42.00;;;;;21.60;48.79;101660.25;4957489;28;47032;-62
2022/05/08 11:28:17;;;;;;;;;55.25;42.25;;;;;21.40;49.05;101649.13;4958145;28;45488;-61
2022/05/08 11:30:46;;;;;;;;;55.00;43.50;;;;;21.16;49.04;101651.66;4957702;28;45414;-60
2022/05/08 11:36:04;;;;;;;;;50.75;42.25;;;;;20.97;49.54;101647.56;4955737;28;45538;-60
2022/05/08 11:38:48;;;;;;;;;53.75;43.50;;;;;20.77;50.15;101648.84;4954881;28;45473;-62